createdAt,value
2019-02-21T00:00:41.344Z,1021.37
2019-02-21T00:01:41.353Z,1021.39
2019-02-21T00:02:41.321Z,1021.36
2019-02-21T00:03:41.307Z,1021.44
2019-02-21T00:04:41.295Z,1021.43
2019-02-21T00:05:41.285Z,1021.37
2019-02-21T00:06:41.295Z,1021.40
2019-02-21T00:07:41.269Z,1021.44
2019-02-21T00:08:41.253Z,1021.43
2019-02-21T00:09:41.246Z,1021.37
2019-02-21T00:10:41.231Z,1021.47
2019-02-21T00:11:41.243Z,1021.40
2019-02-21T00:12:41.211Z,1021.49
2019-02-21T00:13:41.200Z,1021.42
2019-02-21T00:14:41.191Z,1021.47
2019-02-21T00:15:41.175Z,1021.43
2019-02-21T00:16:41.197Z,1021.49
2019-02-21T00:17:41.154Z,1021.44
2019-02-21T00:18:41.146Z,1021.44
2019-02-21T00:19:41.133Z,1021.41
2019-02-21T00:20:41.123Z,1021.47
2019-02-21T00:21:41.110Z,1021.38
2019-02-21T00:22:42.822Z,1021.44
2019-02-21T00:23:41.088Z,1021.48
2019-02-21T00:24:41.079Z,1021.40
2019-02-21T00:25:41.132Z,1021.43
2019-02-21T00:26:41.060Z,1021.44
2019-02-21T00:27:41.068Z,1021.41
2019-02-21T00:28:41.035Z,1021.35
2019-02-21T00:29:41.054Z,1021.44
2019-02-21T00:30:41.027Z,1021.46
2019-02-21T00:31:41.002Z,1021.39
2019-02-21T00:32:42.823Z,1021.36
2019-02-21T00:33:40.978Z,1021.41
2019-02-21T00:34:40.969Z,1021.44
2019-02-21T00:35:40.959Z,1021.44
2019-02-21T00:36:40.960Z,1021.43
2019-02-21T00:37:40.956Z,1021.42
2019-02-21T00:38:40.930Z,1021.41
2019-02-21T00:39:40.917Z,1021.41
2019-02-21T00:40:40.903Z,1021.45
2019-02-21T00:41:40.891Z,1021.42
2019-02-21T00:42:40.902Z,1021.44
2019-02-21T00:43:40.871Z,1021.41
2019-02-21T00:44:40.859Z,1021.41
2019-02-21T00:45:40.849Z,1021.45
2019-02-21T00:46:40.836Z,1021.33
2019-02-21T00:47:40.845Z,1021.35
2019-02-21T00:48:40.815Z,1021.44
2019-02-21T00:49:40.804Z,1021.44
2019-02-21T00:50:40.793Z,1021.39
2019-02-21T00:51:40.785Z,1021.37
2019-02-21T00:52:40.793Z,1021.43
2019-02-21T00:53:40.761Z,1021.40
2019-02-21T00:54:40.750Z,1021.36
2019-02-21T00:55:40.740Z,1021.34
2019-02-21T00:56:40.727Z,1021.42
2019-02-21T00:57:40.741Z,1021.33
2019-02-21T00:58:40.706Z,1021.39
2019-02-21T00:59:40.698Z,1021.39
2019-02-21T01:00:46.496Z,1021.38
2019-02-21T01:01:41.673Z,1021.34
2019-02-21T01:02:40.662Z,1021.32
2019-02-21T01:03:40.673Z,1021.32
2019-02-21T01:04:40.639Z,1021.28
2019-02-21T01:05:40.628Z,1021.29
2019-02-21T01:06:40.636Z,1021.32
2019-02-21T01:07:40.607Z,1021.34
2019-02-21T01:08:40.618Z,1021.28
2019-02-21T01:09:40.586Z,1021.30
2019-02-21T01:10:40.585Z,1021.30
2019-02-21T01:11:40.569Z,1021.24
2019-02-21T01:12:40.554Z,1021.32
2019-02-21T01:13:40.564Z,1021.33
2019-02-21T01:14:40.532Z,1021.29
2019-02-21T01:15:40.525Z,1021.27
2019-02-21T01:16:40.516Z,1021.38
2019-02-21T01:17:40.571Z,1021.39
2019-02-21T01:18:40.514Z,1021.44
2019-02-21T01:19:40.480Z,1021.37
2019-02-21T01:20:40.469Z,1021.49
2019-02-21T01:21:40.474Z,1021.41
2019-02-21T01:22:40.443Z,1021.41
2019-02-21T01:23:40.463Z,1021.43
2019-02-21T01:24:40.465Z,1021.38
2019-02-21T01:25:40.427Z,1021.43
2019-02-21T01:26:40.400Z,1021.41
2019-02-21T01:27:40.414Z,1021.47
2019-02-21T01:28:40.393Z,1021.46
2019-02-21T01:29:41.364Z,1021.41
2019-02-21T01:30:40.394Z,1021.41
2019-02-21T01:31:40.396Z,1021.46
2019-02-21T01:32:40.350Z,1021.45
2019-02-21T01:33:40.361Z,1021.40
2019-02-21T01:34:40.399Z,1021.38
2019-02-21T01:35:40.302Z,1021.46
2019-02-21T01:36:40.296Z,1021.45
2019-02-21T01:37:40.293Z,1021.48
2019-02-21T01:38:40.352Z,1021.48
2019-02-21T01:39:40.261Z,1021.39
2019-02-21T01:40:40.282Z,1021.44
2019-02-21T01:41:40.237Z,1021.49
2019-02-21T01:42:40.243Z,1021.44
2019-02-21T01:43:40.245Z,1021.49
2019-02-21T01:44:40.302Z,1021.45
2019-02-21T01:45:40.199Z,1021.49
2019-02-21T01:46:40.223Z,1021.60
2019-02-21T01:47:40.171Z,1021.46
2019-02-21T01:48:40.246Z,1021.52
2019-02-21T01:49:40.234Z,1021.55
2019-02-21T01:50:40.195Z,1021.50
2019-02-21T01:51:40.216Z,1021.61
2019-02-21T01:52:40.118Z,1021.53
2019-02-21T01:53:40.141Z,1021.57
2019-02-21T01:54:40.147Z,1021.65
2019-02-21T01:55:40.162Z,1021.58
2019-02-21T01:56:40.131Z,1021.52
2019-02-21T01:57:40.192Z,1021.53
2019-02-21T01:58:40.119Z,1021.53
2019-02-21T01:59:40.088Z,1021.51
2019-02-21T02:00:40.136Z,1021.57
2019-02-21T02:01:40.076Z,1021.56
2019-02-21T02:02:40.084Z,1021.56
2019-02-21T02:03:40.075Z,1021.53
2019-02-21T02:04:40.011Z,1021.61
2019-02-21T02:05:40.249Z,1021.54
2019-02-21T02:06:40.063Z,1021.57
2019-02-21T02:07:40.095Z,1021.59
2019-02-21T02:08:39.993Z,1021.56
2019-02-21T02:09:39.968Z,1021.63
2019-02-21T02:10:42.019Z,1021.58
2019-02-21T02:11:40.017Z,1021.58
2019-02-21T02:12:40.131Z,1021.53
2019-02-21T02:13:40.049Z,1021.59
2019-02-21T02:14:39.954Z,1021.64
2019-02-21T02:15:39.953Z,1021.54
2019-02-21T02:16:40.029Z,1021.60
2019-02-21T02:17:39.939Z,1021.63
2019-02-21T02:18:39.916Z,1021.58
2019-02-21T02:19:39.928Z,1021.58
2019-02-21T02:20:39.893Z,1021.53
2019-02-21T02:21:39.850Z,1021.58
2019-02-21T02:22:39.874Z,1021.52
2019-02-21T02:23:39.869Z,1021.51
2019-02-21T02:24:39.840Z,1021.54
2019-02-21T02:25:39.965Z,1021.48
2019-02-21T02:26:39.931Z,1021.49
2019-02-21T02:27:39.905Z,1021.54
2019-02-21T02:28:39.898Z,1021.56
2019-02-21T02:29:39.794Z,1021.56
2019-02-21T02:30:39.878Z,1021.49
2019-02-21T02:31:39.795Z,1021.57
2019-02-21T02:32:39.741Z,1021.56
2019-02-21T02:33:39.773Z,1021.54
2019-02-21T02:34:39.726Z,1021.53
2019-02-21T02:35:39.864Z,1021.54
2019-02-21T02:36:39.760Z,1021.52
2019-02-21T02:37:39.714Z,1021.53
2019-02-21T02:38:39.619Z,1021.45
2019-02-21T02:39:39.611Z,1021.49
2019-02-21T02:40:39.599Z,1021.50
2019-02-21T02:41:39.601Z,1021.45
2019-02-21T02:42:39.584Z,1021.44
2019-02-21T02:43:39.573Z,1021.43
2019-02-21T02:44:39.550Z,1021.39
2019-02-21T02:45:39.542Z,1021.37
2019-02-21T02:46:39.561Z,1021.44
2019-02-21T02:47:39.521Z,1021.44
2019-02-21T02:48:39.519Z,1021.46
2019-02-21T02:49:39.503Z,1021.49
2019-02-21T02:50:39.489Z,1021.50
2019-02-21T02:51:39.504Z,1021.39
2019-02-21T02:52:39.467Z,1021.49
2019-02-21T02:53:39.457Z,1021.48
2019-02-21T02:54:39.446Z,1021.47
2019-02-21T02:55:39.432Z,1021.52
2019-02-21T02:56:39.461Z,1021.60
2019-02-21T02:57:39.408Z,1021.54
2019-02-21T02:58:39.420Z,1021.62
2019-02-21T02:59:41.169Z,1021.60
2019-02-21T03:00:39.374Z,1021.57
2019-02-21T03:01:39.362Z,1021.57
2019-02-21T03:02:39.380Z,1021.65
2019-02-21T03:03:39.345Z,1021.64
2019-02-21T03:04:39.345Z,1021.60
2019-02-21T03:05:39.319Z,1021.63
2019-02-21T03:06:39.309Z,1021.67
2019-02-21T03:07:39.325Z,1021.70
2019-02-21T03:08:39.286Z,1021.65
2019-02-21T03:09:39.276Z,1021.66
2019-02-21T03:10:39.265Z,1021.74
2019-02-21T03:11:39.259Z,1021.68
2019-02-21T03:12:39.266Z,1021.67
2019-02-21T03:13:39.232Z,1021.72
2019-02-21T03:14:39.222Z,1021.65
2019-02-21T03:15:39.230Z,1021.65
2019-02-21T03:16:39.201Z,1021.66
2019-02-21T03:17:39.235Z,1021.68
2019-02-21T03:18:39.183Z,1021.70
2019-02-21T03:19:39.175Z,1021.70
2019-02-21T03:20:39.164Z,1021.60
2019-02-21T03:21:39.170Z,1021.64
2019-02-21T03:22:39.163Z,1021.68
2019-02-21T03:23:39.128Z,1021.67
2019-02-21T03:24:39.117Z,1021.65
2019-02-21T03:25:39.102Z,1021.73
2019-02-21T03:26:39.093Z,1021.62
2019-02-21T03:27:39.108Z,1021.63
2019-02-21T03:28:39.068Z,1021.68
2019-02-21T03:29:39.057Z,1021.65
2019-02-21T03:30:39.049Z,1021.67
2019-02-21T03:31:53.433Z,1021.65
2019-02-21T03:32:40.053Z,1021.65
2019-02-21T03:33:39.038Z,1021.70
2019-02-21T03:34:39.011Z,1021.74
2019-02-21T03:35:39.049Z,1021.69
2019-02-21T03:36:38.984Z,1021.75
2019-02-21T03:37:39.013Z,1021.74
2019-02-21T03:38:38.993Z,1021.69
2019-02-21T03:39:38.952Z,1021.67
2019-02-21T03:40:39.026Z,1021.75
2019-02-21T03:41:38.926Z,1021.74
2019-02-21T03:42:38.915Z,1021.68
2019-02-21T03:43:38.927Z,1021.68
2019-02-21T03:44:38.895Z,1021.70
2019-02-21T03:45:38.890Z,1021.72
2019-02-21T03:46:38.870Z,1021.74
2019-02-21T03:47:38.867Z,1021.71
2019-02-21T03:48:38.888Z,1021.70
2019-02-21T03:49:38.843Z,1021.70
2019-02-21T03:50:38.825Z,1021.73
2019-02-21T03:51:38.819Z,1021.72
2019-02-21T03:52:38.813Z,1021.70
2019-02-21T03:53:38.817Z,1021.71
2019-02-21T03:54:38.786Z,1021.82
2019-02-21T03:55:38.773Z,1021.72
2019-02-21T03:56:38.770Z,1021.78
2019-02-21T03:57:38.753Z,1021.77
2019-02-21T03:58:38.770Z,1021.77
2019-02-21T03:59:38.737Z,1021.70
2019-02-21T04:00:38.732Z,1021.74
2019-02-21T04:01:38.713Z,1021.77
2019-02-21T04:02:38.718Z,1021.72
2019-02-21T04:03:38.741Z,1021.74
2019-02-21T04:04:38.689Z,1021.77
2019-02-21T04:05:38.672Z,1021.76
2019-02-21T04:06:38.661Z,1021.72
2019-02-21T04:07:38.651Z,1021.73
2019-02-21T04:08:38.645Z,1021.72
2019-02-21T04:09:38.656Z,1021.70
2019-02-21T04:10:38.614Z,1021.69
2019-02-21T04:11:38.612Z,1021.72
2019-02-21T04:12:38.606Z,1021.69
2019-02-21T04:13:38.590Z,1021.70
2019-02-21T05:37:07.847Z,1021.56
2019-02-21T05:38:01.798Z,1021.50
2019-02-21T05:39:01.779Z,1021.58
2019-02-21T05:40:03.211Z,1021.50
2019-02-21T05:41:04.274Z,1021.57
2019-02-21T05:42:01.768Z,1021.55
2019-02-21T05:43:01.729Z,1021.54
2019-02-21T05:44:01.725Z,1021.52
2019-02-21T05:45:01.710Z,1021.55
2019-02-21T05:46:01.699Z,1021.61
2019-02-21T05:47:01.809Z,1021.57
2019-02-21T05:48:01.686Z,1021.59
2019-02-21T05:49:01.690Z,1021.63
2019-02-21T05:50:01.659Z,1021.70
2019-02-21T05:51:01.656Z,1021.63
2019-02-21T05:52:01.659Z,1021.71
2019-02-21T05:53:01.652Z,1021.65
2019-02-21T05:54:01.621Z,1021.67
2019-02-21T05:55:01.609Z,1021.65
2019-02-21T05:56:01.598Z,1021.65
2019-02-21T05:57:01.606Z,1021.72
2019-02-21T05:58:01.570Z,1021.72
2019-02-21T05:59:01.561Z,1021.75
2019-02-21T06:00:01.573Z,1021.75
2019-02-21T06:01:01.542Z,1021.79
2019-02-21T06:02:01.561Z,1021.77
2019-02-21T06:03:01.516Z,1021.67
2019-02-21T06:04:01.503Z,1021.68
2019-02-21T06:51:30.553Z,1021.88
2019-02-21T06:51:56.202Z,1021.96
2019-02-21T06:52:56.192Z,1021.91
2019-02-21T06:53:56.202Z,1021.86
2019-02-21T06:54:56.171Z,1021.87
2019-02-21T06:55:56.158Z,1021.90
2019-02-21T06:56:56.144Z,1021.92
2019-02-21T06:57:56.134Z,1021.93
2019-02-21T06:58:56.144Z,1021.88
2019-02-21T06:59:56.112Z,1021.88
2019-02-21T07:00:56.100Z,1021.94
2019-02-21T07:01:56.089Z,1022.02
2019-02-21T07:02:56.089Z,1022.00
2019-02-21T07:03:56.092Z,1022.02
2019-02-21T07:04:56.777Z,1022.01
2019-02-21T07:06:34.603Z,1022.09
2019-02-21T07:06:56.913Z,1022.12
2019-02-21T07:08:59.898Z,1022.12
2019-02-21T07:09:00.369Z,1022.12
2019-02-21T07:10:00.426Z,1022.14
2019-02-21T07:11:06.305Z,1022.11
2019-02-21T07:12:02.114Z,1022.16
2019-02-21T07:13:00.323Z,1022.15
2019-02-21T07:14:00.342Z,1022.15
2019-02-21T07:15:00.438Z,1022.16
2019-02-21T07:16:00.305Z,1022.16
2019-02-21T07:17:00.279Z,1022.15
2019-02-21T07:18:00.274Z,1022.19
2019-02-21T07:19:00.297Z,1022.21
2019-02-21T07:20:00.286Z,1022.25
2019-02-21T07:21:00.236Z,1022.29
2019-02-21T07:22:00.226Z,1022.32
2019-02-21T07:23:00.223Z,1022.24
2019-02-21T07:24:00.231Z,1022.30
2019-02-21T07:25:00.466Z,1022.27
2019-02-21T07:26:00.188Z,1022.21
2019-02-21T07:27:00.172Z,1022.26
2019-02-21T07:28:10.928Z,1022.26
2019-02-21T07:29:01.191Z,1022.22
2019-02-21T07:30:00.416Z,1022.17
2019-02-21T07:31:00.135Z,1022.23
2019-02-21T07:32:00.116Z,1022.23
2019-02-21T07:33:00.108Z,1022.27
2019-02-21T07:34:01.659Z,1022.29
2019-02-21T07:35:00.261Z,1022.36
2019-02-21T07:36:00.083Z,1022.36
2019-02-21T07:37:00.062Z,1022.27
2019-02-21T07:38:00.049Z,1022.35
2019-02-21T07:39:17.159Z,1022.33
2019-02-21T07:41:36.528Z,1022.44
2019-02-21T08:12:24.107Z,1022.67
2019-02-21T08:21:01.444Z,1022.73
2019-02-21T08:21:33.415Z,1022.64
2019-02-21T08:22:33.382Z,1022.60
2019-02-21T08:23:33.374Z,1022.62
2019-02-21T08:24:33.383Z,1022.68
2019-02-21T08:25:33.344Z,1022.64
2019-02-21T08:26:33.369Z,1022.65
2019-02-21T08:27:35.181Z,1022.70
2019-02-21T08:28:33.313Z,1022.73
2019-02-21T08:29:33.300Z,1022.71
2019-02-21T08:30:33.311Z,1022.72
2019-02-21T08:31:33.284Z,1022.66
2019-02-21T08:32:33.271Z,1022.68
2019-02-21T08:33:33.257Z,1022.75
2019-02-21T08:34:33.248Z,1022.64
2019-02-21T08:35:33.239Z,1022.68
2019-02-21T08:36:33.245Z,1022.71
2019-02-21T08:37:33.238Z,1022.70
2019-02-21T08:38:33.201Z,1022.79
2019-02-21T08:39:33.189Z,1022.75
2019-02-21T08:40:33.180Z,1022.75
2019-02-21T08:41:33.192Z,1022.75
2019-02-21T08:42:33.161Z,1022.73
2019-02-21T08:43:33.146Z,1022.76
2019-02-21T08:44:33.135Z,1022.64
2019-02-21T08:45:33.121Z,1022.76
2019-02-21T08:46:33.133Z,1022.68
2019-02-21T08:47:33.099Z,1022.76
2019-02-21T08:48:33.089Z,1022.75
2019-02-21T08:49:33.077Z,1022.72
2019-02-21T08:50:33.069Z,1022.72
2019-02-21T08:51:33.078Z,1022.71
2019-02-21T08:52:33.045Z,1022.72
2019-02-21T08:53:33.034Z,1022.73
2019-02-21T08:54:33.025Z,1022.76
2019-02-21T08:55:33.015Z,1022.77
2019-02-21T08:56:33.045Z,1022.82
2019-02-21T08:57:32.993Z,1022.83
2019-02-21T08:58:32.981Z,1022.87
2019-02-21T08:59:32.968Z,1022.83
2019-02-21T09:00:32.957Z,1022.91
2019-02-21T09:01:32.947Z,1022.89
2019-02-21T09:02:32.962Z,1022.86
2019-02-21T09:03:32.935Z,1022.87
2019-02-21T09:18:56.879Z,1023.00
2019-02-21T09:19:30.596Z,1022.96
2019-02-21T09:20:29.822Z,1022.99
2019-02-21T09:21:29.807Z,1022.91
2019-02-21T09:22:29.807Z,1022.87
2019-02-21T09:23:29.770Z,1022.90
2019-02-21T09:24:38.494Z,1022.88
2019-02-21T09:25:30.749Z,1022.89
2019-02-21T09:26:29.741Z,1022.91
2019-02-21T09:27:29.755Z,1022.85
2019-02-21T09:28:29.720Z,1022.81
2019-02-21T09:29:29.710Z,1022.90
2019-02-21T09:30:29.699Z,1022.96
2019-02-21T09:31:29.688Z,1022.91
2019-02-21T09:32:30.091Z,1022.94
2019-02-21T09:33:29.671Z,1022.91
2019-02-21T10:25:25.233Z,1023.24
2019-02-21T10:25:58.204Z,1023.27
2019-02-21T10:26:58.186Z,1023.26
2019-02-21T10:27:59.196Z,1023.28
2019-02-21T10:28:58.159Z,1023.18
2019-02-21T10:29:58.174Z,1023.18
2019-02-21T10:30:58.141Z,1023.13
2019-02-21T10:31:58.129Z,1023.14
2019-02-21T10:32:58.115Z,1023.14
2019-02-21T10:33:58.105Z,1023.09
2019-02-21T10:34:58.114Z,1023.14
2019-02-21T10:36:00.443Z,1023.09
2019-02-21T10:36:58.083Z,1023.08
2019-02-21T10:37:58.062Z,1023.11
2019-02-21T10:38:58.063Z,1023.02
2019-02-21T10:40:54.200Z,1022.96
2019-02-21T10:40:58.029Z,1022.93
2019-02-21T10:41:58.027Z,1022.98
2019-02-21T10:42:58.018Z,1023.03
2019-02-21T10:43:57.998Z,1023.03
2019-02-21T10:44:58.004Z,1023.08
2019-02-21T10:45:57.972Z,1023.10
2019-02-21T10:46:57.961Z,1023.14
2019-02-21T10:47:57.948Z,1023.12
2019-02-21T10:48:57.939Z,1023.05
2019-02-21T10:49:57.950Z,1023.11
2019-02-21T10:50:57.913Z,1023.13
2019-02-21T10:51:57.902Z,1023.09
2019-02-21T10:52:57.893Z,1023.12
2019-02-21T10:53:57.884Z,1023.10
2019-02-21T10:54:57.868Z,1023.07
2019-02-21T10:55:59.424Z,1022.99
2019-02-21T10:56:57.850Z,1022.99
2019-02-21T10:57:57.839Z,1023.01
2019-02-21T10:58:57.828Z,1022.98
2019-02-21T10:59:57.815Z,1022.92
2019-02-21T11:00:57.836Z,1022.94
2019-02-21T11:01:57.799Z,1022.85
2019-02-21T11:02:57.785Z,1022.82
2019-02-21T11:03:57.780Z,1022.78
2019-02-21T11:04:57.762Z,1022.77
2019-02-21T11:10:38.110Z,1022.80
2019-02-21T11:11:11.055Z,1022.73
2019-02-21T11:13:38.340Z,1022.78
2019-02-21T11:14:05.668Z,1022.86
2019-02-21T11:14:47.219Z,1022.88
2019-02-21T11:15:42.056Z,1022.86
2019-02-21T11:16:38.631Z,1022.83
2019-02-21T11:17:38.645Z,1022.89
2019-02-21T11:18:38.614Z,1022.84
2019-02-21T11:19:38.604Z,1022.87
2019-02-21T11:20:38.586Z,1022.92
2019-02-21T11:21:38.581Z,1022.87
2019-02-21T11:22:38.591Z,1022.88
2019-02-21T11:23:38.561Z,1022.88
2019-02-21T11:24:38.548Z,1022.83
2019-02-21T11:25:38.541Z,1022.83
2019-02-21T11:26:38.518Z,1022.75
2019-02-21T11:27:39.107Z,1022.74
2019-02-21T11:28:38.501Z,1022.74
2019-02-21T11:29:38.497Z,1022.75
2019-02-21T11:30:38.476Z,1022.79
2019-02-21T11:31:38.464Z,1022.77
2019-02-21T11:32:38.476Z,1022.71
2019-02-21T11:33:38.467Z,1022.74
2019-02-21T11:34:38.455Z,1022.70
2019-02-21T11:41:21.816Z,1022.68
2019-02-21T11:42:21.787Z,1022.69
2019-02-21T11:43:21.791Z,1022.55
2019-02-21T11:44:21.760Z,1022.55
2019-02-21T11:45:21.747Z,1022.65
2019-02-21T11:46:21.733Z,1022.59
2019-02-21T11:47:21.725Z,1022.55
2019-02-21T11:48:21.738Z,1022.50
2019-02-21T11:49:21.701Z,1022.52
2019-02-21T11:50:21.689Z,1022.50
2019-02-21T11:51:21.678Z,1022.48
2019-02-21T11:52:21.665Z,1022.51
2019-02-21T11:53:21.661Z,1022.49
2019-02-21T11:54:26.902Z,1022.47
2019-02-21T11:55:22.639Z,1022.43
2019-02-21T11:56:21.630Z,1022.47
2019-02-21T11:57:21.611Z,1022.43
2019-02-21T11:58:21.600Z,1022.47
2019-02-21T11:59:21.611Z,1022.48
2019-02-21T12:00:21.667Z,1022.41
2019-02-21T12:01:21.568Z,1022.43
2019-02-21T12:02:21.562Z,1022.36
2019-02-21T12:03:21.552Z,1022.42
2019-02-21T12:04:21.560Z,1022.35
2019-02-21T12:05:30.425Z,1022.34
2019-02-21T12:06:22.509Z,1022.34
2019-02-21T12:07:21.509Z,1022.36
2019-02-21T12:08:21.491Z,1022.36
2019-02-21T12:37:52.861Z,1022.47
2019-02-21T12:38:25.828Z,1022.41
2019-02-21T12:39:25.810Z,1022.38
2019-02-21T12:40:25.807Z,1022.37
2019-02-21T12:50:17.693Z,1022.34
2019-02-21T12:51:17.647Z,1022.38
2019-02-21T12:52:17.652Z,1022.34
2019-02-21T12:53:17.609Z,1022.27
2019-02-21T12:54:17.585Z,1022.33
2019-02-21T12:55:27.217Z,1022.36
2019-02-21T12:56:18.564Z,1022.26
2019-02-21T12:57:17.555Z,1022.30
2019-02-21T12:58:18.261Z,1022.33
2019-02-21T12:59:17.530Z,1022.29
2019-02-21T13:00:17.537Z,1022.34
2019-02-21T13:01:17.513Z,1022.34
2019-02-21T13:02:17.498Z,1022.35
2019-02-21T13:03:17.542Z,1022.31
2019-02-21T13:04:17.474Z,1022.35
2019-02-21T13:05:17.543Z,1022.36
2019-02-21T13:06:17.453Z,1022.20
2019-02-21T13:07:17.441Z,1022.30
2019-02-21T13:08:17.450Z,1022.23
2019-02-21T13:09:17.417Z,1022.25
2019-02-21T13:10:17.416Z,1022.23
2019-02-21T13:11:17.400Z,1022.24
2019-02-21T13:12:17.393Z,1022.24
2019-02-21T13:13:17.402Z,1022.23
2019-02-21T13:14:17.366Z,1022.26
2019-02-21T13:16:44.467Z,1022.26
2019-02-21T13:17:12.324Z,1022.26
2019-02-21T13:19:11.885Z,1022.25
2019-02-21T13:19:39.313Z,1022.31
2019-02-21T13:20:12.199Z,1022.36
2019-02-21T13:21:12.207Z,1022.29
2019-02-21T13:22:12.195Z,1022.29
2019-02-21T13:23:12.193Z,1022.29
2019-02-21T13:24:12.179Z,1022.27
2019-02-21T13:25:12.222Z,1022.31
2019-02-21T13:26:12.161Z,1022.32
2019-02-21T13:27:12.120Z,1022.24
2019-02-21T13:28:12.177Z,1022.25
2019-02-21T13:29:12.127Z,1022.20
2019-02-21T13:30:12.094Z,1022.20
2019-02-21T13:31:12.078Z,1022.25
2019-02-21T13:32:12.068Z,1022.19
2019-02-21T13:33:12.054Z,1022.22
2019-02-21T13:34:12.064Z,1022.25
2019-02-21T13:35:12.034Z,1022.23
2019-02-21T13:36:12.024Z,1022.19
2019-02-21T13:37:12.012Z,1022.11
2019-02-21T13:38:12.063Z,1022.15
2019-02-21T13:39:12.024Z,1022.10
2019-02-21T13:40:11.979Z,1022.12
2019-02-21T13:41:11.972Z,1022.17
2019-02-21T14:17:03.982Z,1022.50
2019-02-21T14:17:31.311Z,1022.48
2019-02-21T14:18:04.305Z,1022.54
2019-02-21T14:20:31.365Z,1022.62
2019-02-21T14:31:35.373Z,1022.69
2019-02-21T14:32:35.359Z,1022.67
2019-02-21T14:33:35.320Z,1022.69
2019-02-21T14:34:35.309Z,1022.65
2019-02-21T14:35:35.296Z,1022.70
2019-02-21T14:36:35.285Z,1022.68
2019-02-21T14:37:35.303Z,1022.70
2019-02-21T14:38:37.712Z,1022.64
2019-02-21T14:39:35.255Z,1022.65
2019-02-21T14:40:35.246Z,1022.66
2019-02-21T14:41:35.285Z,1022.72
2019-02-21T14:42:35.237Z,1022.65
2019-02-21T14:43:44.835Z,1022.72
2019-02-21T14:44:35.209Z,1022.71
2019-02-21T14:45:35.194Z,1022.73
2019-02-21T14:46:35.186Z,1022.75
2019-02-21T14:47:35.185Z,1022.81
2019-02-21T14:48:35.178Z,1022.83
2019-02-21T14:49:35.143Z,1022.84
2019-02-21T14:50:36.096Z,1022.88
2019-02-21T14:51:35.119Z,1022.84
2019-02-21T14:52:35.108Z,1022.88
2019-02-21T14:53:35.121Z,1022.85
2019-02-21T14:54:35.099Z,1022.84
2019-02-21T14:55:35.079Z,1022.88
2019-02-21T14:56:35.071Z,1022.92
2019-02-21T14:57:40.913Z,1022.95
2019-02-21T14:58:36.061Z,1022.93
2019-02-21T14:59:35.048Z,1022.90
2019-02-21T15:00:35.022Z,1022.91
2019-02-21T15:01:35.018Z,1022.92
2019-02-21T15:02:35.002Z,1022.89
2019-02-21T15:03:35.020Z,1022.89
2019-02-21T15:04:34.979Z,1022.90
2019-02-21T15:05:34.976Z,1022.90
2019-02-21T15:06:34.963Z,1022.91
2019-02-21T15:07:34.950Z,1022.91
2019-02-21T15:08:34.963Z,1022.90
2019-02-21T15:09:34.926Z,1022.89
2019-02-21T15:10:34.915Z,1022.92
2019-02-21T15:11:34.906Z,1022.86
2019-02-21T15:12:35.685Z,1022.88
2019-02-21T15:13:34.881Z,1022.84
2019-02-21T15:14:34.895Z,1022.90
2019-02-21T15:15:34.859Z,1022.91
2019-02-21T15:16:34.860Z,1022.96
2019-02-21T15:17:34.838Z,1022.92
2019-02-21T15:18:34.827Z,1022.89
2019-02-21T15:19:34.843Z,1022.88
2019-02-21T15:20:37.065Z,1022.87
2019-02-21T15:21:34.792Z,1022.89
2019-02-21T15:22:34.789Z,1022.87
2019-02-21T15:23:37.011Z,1022.82
2019-02-21T15:24:34.831Z,1022.87
2019-02-21T15:25:34.762Z,1022.87
2019-02-21T15:26:34.736Z,1022.88
2019-02-21T15:27:34.773Z,1022.87
2019-02-21T15:28:34.731Z,1022.84
2019-02-21T15:29:34.731Z,1022.86
2019-02-21T15:30:34.695Z,1022.84
2019-02-21T15:31:34.689Z,1022.79
2019-02-21T15:32:34.679Z,1022.84
2019-02-21T15:33:34.676Z,1022.81
2019-02-21T15:34:34.684Z,1022.78
2019-02-21T17:17:52.219Z,1023.43
2019-02-21T17:18:25.199Z,1023.47
2019-02-21T17:19:25.187Z,1023.56
2019-02-21T17:20:25.180Z,1023.59
2019-02-21T17:21:25.166Z,1023.60
2019-02-21T17:22:25.159Z,1023.58
2019-02-21T17:23:25.155Z,1023.65
2019-02-21T17:24:25.144Z,1023.65
2019-02-21T17:25:25.108Z,1023.61
2019-02-21T17:26:25.138Z,1023.61
2019-02-21T17:27:25.084Z,1023.67
2019-02-21T17:28:25.072Z,1023.75
2019-02-21T17:29:26.852Z,1023.76
2019-02-21T17:30:25.057Z,1023.77
2019-02-21T17:31:25.046Z,1023.77
2019-02-21T17:32:25.072Z,1023.79
2019-02-21T17:33:25.014Z,1023.78
2019-02-21T17:34:25.034Z,1023.79
2019-02-21T17:35:25.055Z,1023.85
2019-02-21T17:36:25.047Z,1023.76
2019-02-21T17:37:25.486Z,1023.77
2019-02-21T17:38:25.039Z,1023.79
2019-02-21T17:39:24.952Z,1023.77
2019-02-21T17:40:24.962Z,1023.80
2019-02-21T17:41:24.937Z,1023.84
2019-02-21T17:42:24.949Z,1023.87
2019-02-21T17:43:25.029Z,1023.84
2019-02-21T17:44:24.940Z,1023.83
2019-02-21T17:45:25.046Z,1023.85
2019-02-21T17:46:24.884Z,1023.86
2019-02-21T17:47:24.988Z,1023.86
2019-02-21T18:02:05.518Z,1023.97
2019-02-21T18:02:38.504Z,1023.98
2019-02-21T18:03:38.451Z,1023.95
2019-02-21T18:04:38.437Z,1023.92
2019-02-21T18:05:38.533Z,1023.93
2019-02-21T18:26:26.903Z,1024.15
2019-02-21T18:27:26.939Z,1024.20
2019-02-21T18:28:26.832Z,1024.14
2019-02-21T18:29:26.891Z,1024.18
2019-02-21T18:30:26.803Z,1024.24
2019-02-21T18:31:26.837Z,1024.20
2019-02-21T18:32:26.787Z,1024.26
2019-02-21T18:33:26.766Z,1024.23
2019-02-21T18:34:26.762Z,1024.17
2019-02-21T18:35:26.752Z,1024.27
2019-02-21T18:36:26.767Z,1024.20
2019-02-21T18:37:26.750Z,1024.24
2019-02-21T18:38:26.715Z,1024.27
2019-02-21T18:39:26.704Z,1024.26
2019-02-21T18:40:26.692Z,1024.23
2019-02-21T18:41:26.701Z,1024.25
2019-02-21T18:42:26.673Z,1024.31
2019-02-21T18:43:26.662Z,1024.26
2019-02-21T18:44:26.666Z,1024.28
2019-02-21T18:45:26.641Z,1024.28
2019-02-21T18:46:26.770Z,1024.28
2019-02-21T18:47:26.617Z,1024.30
2019-02-21T18:48:26.637Z,1024.35
2019-02-21T18:49:26.597Z,1024.40
2019-02-21T18:50:37.346Z,1024.39
2019-02-21T18:51:27.590Z,1024.30
2019-02-21T18:52:26.577Z,1024.40
2019-02-21T18:53:26.585Z,1024.40
2019-02-21T18:54:26.538Z,1024.40
2019-02-21T18:55:26.534Z,1024.47
2019-02-21T18:56:26.543Z,1024.38
2019-02-21T18:57:26.508Z,1024.42
2019-02-21T18:58:26.496Z,1024.46
2019-02-21T18:59:31.691Z,1024.44
2019-02-21T19:00:27.467Z,1024.47
2019-02-21T19:01:26.485Z,1024.42
2019-02-21T19:02:26.452Z,1024.38
2019-02-21T19:03:26.437Z,1024.35
2019-02-21T19:04:26.428Z,1024.40
2019-02-21T19:09:49.309Z,1024.45
2019-02-21T19:10:22.288Z,1024.49
2019-02-21T19:13:38.269Z,1024.51
2019-02-21T19:51:48.646Z,1024.65
2019-02-21T19:52:47.459Z,1024.71
2019-02-21T19:53:47.572Z,1024.65
2019-02-21T19:54:47.434Z,1024.69
2019-02-21T19:55:47.457Z,1024.68
2019-02-21T19:56:47.416Z,1024.71
2019-02-21T19:57:47.407Z,1024.63
2019-02-21T19:58:47.394Z,1024.62
2019-02-21T19:59:47.400Z,1024.66
2019-02-21T20:00:47.428Z,1024.66
2019-02-21T20:01:47.404Z,1024.58
2019-02-21T20:02:47.418Z,1024.64
2019-02-21T20:03:47.358Z,1024.68
2019-02-21T20:04:47.392Z,1024.66
2019-02-21T20:05:47.383Z,1024.70
2019-02-21T20:06:47.387Z,1024.70
2019-02-21T20:07:47.306Z,1024.72
2019-02-21T20:08:47.319Z,1024.73
2019-02-21T20:09:47.375Z,1024.68
2019-02-21T20:10:47.298Z,1024.69
2019-02-21T20:11:47.388Z,1024.71
2019-02-21T20:12:47.269Z,1024.72
2019-02-21T20:13:47.244Z,1024.69
2019-02-21T20:14:47.272Z,1024.71
2019-02-21T20:15:47.238Z,1024.76
2019-02-21T20:16:47.285Z,1024.77
2019-02-21T20:17:47.250Z,1024.79
2019-02-21T20:18:47.243Z,1024.75
2019-02-21T20:19:48.096Z,1024.82
2019-02-21T20:20:47.156Z,1024.80
2019-02-21T20:21:47.151Z,1024.86
2019-02-21T20:22:47.161Z,1024.85
2019-02-21T20:23:47.131Z,1024.91
2019-02-21T20:24:47.182Z,1024.94
2019-02-21T20:25:47.168Z,1024.85
2019-02-21T20:26:47.157Z,1024.92
2019-02-21T20:27:47.076Z,1024.96
2019-02-21T20:28:47.149Z,1024.97